createdAt,value
2018-06-11T00:01:56.375Z,89.80
2018-06-11T00:04:24.876Z,89.90
2018-06-11T00:06:53.391Z,90.20
2018-06-11T00:09:22.070Z,90.20
2018-06-11T00:11:50.578Z,90.20
2018-06-11T00:14:19.540Z,90.40
2018-06-11T00:19:41.041Z,90.50
2018-06-11T00:22:09.542Z,90.50
2018-06-11T00:24:38.012Z,90.60
2018-06-11T00:27:06.579Z,90.30
2018-06-11T00:29:35.090Z,90.10
2018-06-11T00:32:03.683Z,89.10
2018-06-11T00:34:32.154Z,90.00
2018-06-11T00:37:00.679Z,90.50
2018-06-11T00:39:29.151Z,90.80
2018-06-11T00:41:57.667Z,91.00
2018-06-11T00:44:26.159Z,91.00
2018-06-11T00:46:54.724Z,91.00
2018-06-11T00:49:23.280Z,90.50
2018-06-11T00:51:52.283Z,90.50
2018-06-11T00:54:21.233Z,90.20
2018-06-11T00:56:49.779Z,90.10
2018-06-11T00:59:18.261Z,90.50
2018-06-11T01:01:46.769Z,90.60
2018-06-11T01:04:15.338Z,90.60
2018-06-11T01:06:43.993Z,90.40
2018-06-11T01:09:12.538Z,90.10
2018-06-11T01:11:41.164Z,90.20
2018-06-11T01:14:09.655Z,90.50
2018-06-11T01:16:38.124Z,90.80
2018-06-11T01:19:06.289Z,90.70
2018-06-11T01:21:34.771Z,90.70
2018-06-11T01:24:03.471Z,91.00
2018-06-11T01:26:32.007Z,90.90
2018-06-11T01:29:00.510Z,90.90
2018-06-11T01:31:29.079Z,90.90
2018-06-11T01:33:57.658Z,90.70
2018-06-11T01:36:26.401Z,90.40
2018-06-11T01:38:54.895Z,90.50
2018-06-11T01:41:23.460Z,90.40
2018-06-11T01:43:51.958Z,90.50
2018-06-11T01:46:43.324Z,90.30
2018-06-11T01:49:11.894Z,90.10
2018-06-11T01:51:40.463Z,89.80
2018-06-11T01:54:09.004Z,89.70
2018-06-11T01:56:37.524Z,89.40
2018-06-11T01:59:06.035Z,89.60
2018-06-11T02:01:34.522Z,89.40
2018-06-11T02:04:03.040Z,89.20
2018-06-11T02:06:31.655Z,88.90
2018-06-11T02:09:00.124Z,88.30
2018-06-11T02:11:28.756Z,87.70
2018-06-11T02:13:57.346Z,87.40
2018-06-11T02:16:35.367Z,88.30
2018-06-11T02:19:03.882Z,88.20
2018-06-11T02:21:32.471Z,88.60
2018-06-11T02:24:01.054Z,89.10
2018-06-11T02:29:16.377Z,88.80
2018-06-11T02:31:44.836Z,88.80
2018-06-11T02:34:13.358Z,88.90
2018-06-11T02:36:41.920Z,88.80
2018-06-11T02:39:10.530Z,89.10
2018-06-11T02:41:39.129Z,89.00
2018-06-11T02:44:07.623Z,88.80
2018-06-11T02:46:36.131Z,89.10
2018-06-11T02:49:04.748Z,88.90
2018-06-11T02:51:33.429Z,88.90
2018-06-11T02:54:02.005Z,88.90
2018-06-11T02:56:30.523Z,88.60
2018-06-11T02:58:59.118Z,88.70
2018-06-11T03:01:27.574Z,87.50
2018-06-11T03:03:56.070Z,88.30
2018-06-11T03:06:24.888Z,88.00
2018-06-11T03:08:53.388Z,88.10
2018-06-11T03:11:21.874Z,88.00
2018-06-11T03:13:50.438Z,88.00
2018-06-11T03:16:19.226Z,88.00
2018-06-11T03:21:15.986Z,88.70
2018-06-11T03:23:44.549Z,86.60
2018-06-11T03:26:13.034Z,86.70
2018-06-11T03:28:41.578Z,86.50
2018-06-11T03:31:10.143Z,86.00
2018-06-11T03:33:38.654Z,86.90
2018-06-11T03:36:07.151Z,87.70
2018-06-11T03:38:35.703Z,88.30
2018-06-11T03:41:04.282Z,89.30
2018-06-11T03:43:32.787Z,89.40
2018-06-11T03:46:01.344Z,89.60
2018-06-11T03:48:29.849Z,89.20
2018-06-11T03:50:58.398Z,88.40
2018-06-11T03:53:27.069Z,89.10
2018-06-11T03:55:55.539Z,89.90
2018-06-11T03:58:24.051Z,90.10
2018-06-11T04:00:52.530Z,90.20
2018-06-11T04:03:21.023Z,90.40
2018-06-11T04:05:49.546Z,90.30
2018-06-11T04:10:46.314Z,90.60
2018-06-11T04:13:14.751Z,90.50
2018-06-11T04:15:43.264Z,90.50
2018-06-11T04:18:12.107Z,90.70
2018-06-11T04:20:40.626Z,91.00
2018-06-11T04:23:09.218Z,91.10
2018-06-11T04:25:37.801Z,91.10
2018-06-11T04:28:06.371Z,90.90
2018-06-11T04:33:03.032Z,90.90
2018-06-11T04:35:31.595Z,91.00
2018-06-11T04:38:00.015Z,91.00
2018-06-11T04:40:28.509Z,91.20
2018-06-11T04:42:57.028Z,91.50
2018-06-11T04:45:25.530Z,91.90
2018-06-11T04:47:54.130Z,91.90
2018-06-11T04:50:22.712Z,91.80
2018-06-11T04:52:51.195Z,91.60
2018-06-11T04:55:25.099Z,91.60
2018-06-11T04:57:53.602Z,91.70
2018-06-11T05:00:22.171Z,91.60
2018-06-11T05:02:50.777Z,91.30
2018-06-11T05:05:19.298Z,91.00
2018-06-11T05:07:47.844Z,90.70
2018-06-11T05:10:16.384Z,90.70
2018-06-11T05:12:44.955Z,90.70
2018-06-11T05:15:13.472Z,90.60
2018-06-11T05:17:42.601Z,90.50
2018-06-11T05:20:11.328Z,90.50
2018-06-11T05:22:39.842Z,90.60
2018-06-11T05:25:08.551Z,90.50
2018-06-11T05:27:37.164Z,90.10
2018-06-11T05:30:05.719Z,90.60
2018-06-11T05:32:34.243Z,90.90
2018-06-11T05:35:07.986Z,90.90
2018-06-11T05:37:36.573Z,90.70
2018-06-11T05:40:05.230Z,90.10
2018-06-11T05:42:33.823Z,90.20
2018-06-11T05:45:02.385Z,90.40
2018-06-11T05:47:30.909Z,90.30
2018-06-11T05:49:59.414Z,90.50
2018-06-11T05:52:28.083Z,90.40
2018-06-11T05:54:56.679Z,90.10
2018-06-11T05:57:25.119Z,89.20
2018-06-11T05:59:53.664Z,89.10
2018-06-11T06:04:50.494Z,87.70
2018-06-11T06:07:18.983Z,88.40
2018-06-11T06:09:47.510Z,88.00
2018-06-11T06:12:15.990Z,87.70
2018-06-11T06:14:44.531Z,87.10
2018-06-11T06:17:13.034Z,87.40
2018-06-11T06:19:41.551Z,86.70
2018-06-11T06:22:10.076Z,86.80
2018-06-11T06:24:38.675Z,86.90
2018-06-11T06:27:07.322Z,86.50
2018-06-11T06:29:36.685Z,85.60
2018-06-11T06:32:05.309Z,84.50
2018-06-11T06:34:33.856Z,85.40
2018-06-11T06:37:02.766Z,86.10
2018-06-11T06:39:31.362Z,85.50
2018-06-11T06:41:59.976Z,85.60
2018-06-11T06:46:56.863Z,84.10
2018-06-11T06:49:25.354Z,84.20
2018-06-11T06:51:54.153Z,83.90
2018-06-11T06:54:22.698Z,83.90
2018-06-11T06:56:51.196Z,85.50
2018-06-11T06:59:19.722Z,83.30
2018-06-11T07:01:48.243Z,83.70
2018-06-11T07:04:16.754Z,84.00
2018-06-11T07:06:45.289Z,83.70
2018-06-11T07:09:13.979Z,83.00
2018-06-11T07:14:10.695Z,82.60
2018-06-11T07:16:48.674Z,82.50
2018-06-11T07:19:17.242Z,82.10
2018-06-11T07:21:45.837Z,82.50
2018-06-11T07:24:14.469Z,82.60
2018-06-11T07:26:52.598Z,83.30
2018-06-11T07:31:49.338Z,83.30
2018-06-11T07:34:17.854Z,84.30
2018-06-11T07:36:46.496Z,83.70
2018-06-11T07:39:15.099Z,86.20
2018-06-11T07:41:43.656Z,85.70
2018-06-11T07:44:12.185Z,87.70
2018-06-11T07:46:40.894Z,89.40
2018-06-11T07:49:09.424Z,88.80
2018-06-11T07:51:38.019Z,88.40
2018-06-11T07:54:06.478Z,90.40
2018-06-11T07:56:35.032Z,90.60
2018-06-11T07:59:03.540Z,91.50
2018-06-11T08:01:32.041Z,90.20
2018-06-11T08:04:00.722Z,87.20
2018-06-11T08:06:43.159Z,83.50
2018-06-11T08:09:11.660Z,82.80
2018-06-11T08:11:40.173Z,78.50
2018-06-11T08:14:08.708Z,78.00
2018-06-11T08:16:37.475Z,75.60
2018-06-11T08:19:06.003Z,74.10
2018-06-11T08:21:34.533Z,74.30
2018-06-11T08:24:03.177Z,74.50
2018-06-11T08:26:31.866Z,74.90
2018-06-11T08:29:00.446Z,75.20
2018-06-11T08:31:28.962Z,76.70
2018-06-11T08:33:57.507Z,78.60
2018-06-11T08:36:31.267Z,81.30
2018-06-11T08:38:59.770Z,82.50
2018-06-11T08:41:28.275Z,83.80
2018-06-11T08:43:56.797Z,83.30
2018-06-11T08:46:25.330Z,83.70
2018-06-11T08:48:53.871Z,85.10
2018-06-11T08:51:22.407Z,85.90
2018-06-11T08:53:50.942Z,82.50
2018-06-11T08:56:19.469Z,78.30
2018-06-11T08:58:47.989Z,76.70
2018-06-11T09:01:16.479Z,76.50
2018-06-11T09:03:45.099Z,76.10
2018-06-11T09:06:27.383Z,75.40
2018-06-11T09:08:55.942Z,79.20
2018-06-11T09:11:24.468Z,81.10
2018-06-11T09:13:53.131Z,82.90
2018-06-11T09:16:21.655Z,82.80
2018-06-11T09:18:50.204Z,83.00
2018-06-11T09:21:18.978Z,83.10
2018-06-11T09:23:47.539Z,83.50
2018-06-11T09:26:16.234Z,83.80
2018-06-11T09:28:44.749Z,83.50
2018-06-11T09:31:13.282Z,83.20
2018-06-11T09:36:10.117Z,83.00
2018-06-11T09:38:38.687Z,84.10
2018-06-11T09:41:07.201Z,84.60
2018-06-11T09:43:35.831Z,84.80
2018-06-11T09:46:04.503Z,84.60
2018-06-11T09:48:33.001Z,84.60
2018-06-11T09:51:01.532Z,84.90
2018-06-11T09:53:30.470Z,83.80
2018-06-11T09:55:59.079Z,84.10
2018-06-11T09:58:27.689Z,84.80
2018-06-11T10:00:56.659Z,85.00
2018-06-11T10:03:25.286Z,83.80
2018-06-11T10:05:53.851Z,84.00
2018-06-11T10:08:22.378Z,84.20
2018-06-11T10:10:50.981Z,85.10
2018-06-11T10:13:19.544Z,87.60
2018-06-11T10:15:49.003Z,87.10
2018-06-11T10:20:46.063Z,87.60
2018-06-11T10:25:42.854Z,88.10
2018-06-11T10:28:11.406Z,87.60
2018-06-11T10:30:39.942Z,88.50
2018-06-11T10:33:10.638Z,88.90
2018-06-11T10:35:44.351Z,89.90
2018-06-11T10:38:12.866Z,90.50
2018-06-11T10:40:41.321Z,91.10
2018-06-11T10:43:09.841Z,91.50
2018-06-11T10:45:38.413Z,91.40
2018-06-11T10:48:06.900Z,92.30
2018-06-11T10:50:35.385Z,92.50
2018-06-11T10:53:04.020Z,92.10
2018-06-11T10:55:32.754Z,91.80
2018-06-11T10:58:01.336Z,93.80
2018-06-11T11:00:29.872Z,94.80
2018-06-11T11:02:58.501Z,95.20
2018-06-11T11:08:20.332Z,95.10
2018-06-11T11:10:48.963Z,95.40
2018-06-11T11:13:17.607Z,96.00
2018-06-11T11:15:46.362Z,96.30
2018-06-11T11:18:14.842Z,96.60
2018-06-11T11:20:43.319Z,97.20
2018-06-11T11:23:11.888Z,97.50
2018-06-11T11:31:26.589Z,98.60
2018-06-11T11:33:55.180Z,98.70
2018-06-11T11:36:37.556Z,98.30
2018-06-11T11:39:08.132Z,98.50
2018-06-11T11:41:36.823Z,98.50
2018-06-11T11:44:05.466Z,98.50
2018-06-11T11:46:33.951Z,98.00
2018-06-11T11:49:02.720Z,97.10
2018-06-11T11:51:31.270Z,96.80
2018-06-11T11:53:59.782Z,97.90
2018-06-11T11:56:42.069Z,97.80
2018-06-11T11:59:10.612Z,97.60
2018-06-11T12:01:39.167Z,98.00
2018-06-11T12:04:07.695Z,97.70
2018-06-11T12:06:36.192Z,97.10
2018-06-11T12:09:07.002Z,98.30
2018-06-11T12:11:35.979Z,98.40
2018-06-11T12:14:04.508Z,98.00
2018-06-11T12:16:33.154Z,98.70
2018-06-11T12:19:01.845Z,98.70
2018-06-11T12:21:30.665Z,99.00
2018-06-11T12:23:59.262Z,99.00
2018-06-11T12:26:27.939Z,98.60
2018-06-11T12:28:56.416Z,98.80
2018-06-11T12:31:24.982Z,98.80
2018-06-11T12:33:53.501Z,99.50
2018-06-11T12:36:22.384Z,99.50
2018-06-11T12:38:50.908Z,99.50
2018-06-11T12:41:19.450Z,99.50
2018-06-11T12:43:47.994Z,99.90
2018-06-11T12:46:16.759Z,99.90
2018-06-11T12:48:45.408Z,99.90
2018-06-11T12:51:14.113Z,99.90
2018-06-11T12:53:42.878Z,99.90
2018-06-11T12:56:11.487Z,99.90
2018-06-11T13:01:08.181Z,99.40
2018-06-11T13:03:36.719Z,99.30
2018-06-11T13:06:05.388Z,99.30
2018-06-11T13:08:33.908Z,99.10
2018-06-11T13:11:02.451Z,99.70
2018-06-11T13:13:30.959Z,99.90
2018-06-11T13:15:59.775Z,99.90
2018-06-11T13:18:28.330Z,99.90
2018-06-11T13:20:56.856Z,99.90
2018-06-11T13:23:25.327Z,99.90
2018-06-11T13:25:53.932Z,99.90
2018-06-11T13:30:50.697Z,99.90
2018-06-11T13:35:47.721Z,99.90
2018-06-11T13:38:16.351Z,99.90
2018-06-11T13:40:44.949Z,99.90
2018-06-11T13:43:13.412Z,99.90
2018-06-11T13:45:42.215Z,99.90
2018-06-11T13:48:10.776Z,99.90
2018-06-11T13:50:39.339Z,99.90
2018-06-11T13:53:07.856Z,99.90
2018-06-11T13:55:36.378Z,99.90
2018-06-11T13:58:04.976Z,99.80
2018-06-11T14:00:33.524Z,99.90
2018-06-11T14:03:02.080Z,99.90
2018-06-11T14:05:30.596Z,98.20
2018-06-11T14:07:59.154Z,97.20
2018-06-11T14:10:27.697Z,97.20
2018-06-11T14:12:56.235Z,97.80
2018-06-11T14:15:47.738Z,92.50
2018-06-11T14:18:16.340Z,92.20
2018-06-11T14:20:44.971Z,91.70
2018-06-11T14:23:13.658Z,91.20
2018-06-11T14:25:42.282Z,90.70
2018-06-11T14:28:10.835Z,92.00
2018-06-11T14:30:39.764Z,91.70
2018-06-11T14:33:08.283Z,90.20
2018-06-11T14:35:36.991Z,91.80
2018-06-11T14:38:05.511Z,90.70
2018-06-11T14:40:34.082Z,89.70
2018-06-11T14:43:02.609Z,87.30
2018-06-11T14:45:40.615Z,88.50
2018-06-11T14:48:09.204Z,86.60
2018-06-11T14:50:37.734Z,87.60
2018-06-11T14:53:06.270Z,88.30
2018-06-11T14:55:34.745Z,88.00
2018-06-11T14:58:03.340Z,90.00
2018-06-11T15:00:31.963Z,90.00
2018-06-11T15:03:00.487Z,89.70
2018-06-11T15:05:38.389Z,90.30
2018-06-11T15:08:07.050Z,90.50
2018-06-11T15:10:35.607Z,91.10
2018-06-11T15:13:04.109Z,91.20
2018-06-11T15:18:25.811Z,88.70
2018-06-11T15:20:54.375Z,87.10
2018-06-11T15:23:22.834Z,88.40
2018-06-11T15:25:51.356Z,88.50
2018-06-11T15:28:20.304Z,88.10
2018-06-11T15:30:48.946Z,87.80
2018-06-11T15:33:17.567Z,87.70
2018-06-11T15:35:46.224Z,88.50
2018-06-11T15:38:14.735Z,86.70
2018-06-11T15:40:43.243Z,87.20
2018-06-11T15:43:11.774Z,86.20
2018-06-11T15:45:40.318Z,85.20
2018-06-11T15:48:08.838Z,84.20
2018-06-11T15:50:37.339Z,85.60
2018-06-11T15:53:06.232Z,85.00
2018-06-11T15:55:34.802Z,85.10
2018-06-11T15:58:03.475Z,86.20
2018-06-11T16:00:32.123Z,85.00
2018-06-11T16:03:00.647Z,85.30
2018-06-11T16:05:29.262Z,83.90
2018-06-11T16:07:57.930Z,81.70
2018-06-11T16:10:26.596Z,81.80
2018-06-11T16:12:55.882Z,82.00
2018-06-11T16:15:24.472Z,81.60
2018-06-11T16:17:53.077Z,82.90
2018-06-11T16:20:21.789Z,82.60
2018-06-11T16:25:18.671Z,80.50
2018-06-11T16:27:47.428Z,80.30
2018-06-11T16:32:44.346Z,82.90
2018-06-11T16:35:13.051Z,81.70
2018-06-11T16:37:41.622Z,82.50
2018-06-11T16:40:10.104Z,81.30
2018-06-11T16:42:38.712Z,83.90
2018-06-11T16:45:07.304Z,83.30
2018-06-11T16:47:36.269Z,83.30
2018-06-11T16:50:04.932Z,85.50
2018-06-11T16:52:33.488Z,85.00
2018-06-11T16:55:02.006Z,84.80
2018-06-11T16:57:30.808Z,86.10
2018-06-11T16:59:59.323Z,85.70
2018-06-11T17:02:28.252Z,85.50
2018-06-11T17:04:57.083Z,85.60
2018-06-11T17:07:30.833Z,84.90
2018-06-11T17:09:59.495Z,84.90
2018-06-11T17:12:28.023Z,85.00
2018-06-11T17:14:56.602Z,85.90
2018-06-11T17:17:25.118Z,88.10
2018-06-11T17:19:53.721Z,88.80
2018-06-11T17:22:22.315Z,88.70
2018-06-11T17:24:50.870Z,89.20
2018-06-11T17:27:19.403Z,88.10
2018-06-11T17:29:47.909Z,87.70
2018-06-11T17:32:16.422Z,90.20
2018-06-11T17:37:13.200Z,90.30
2018-06-11T17:39:41.817Z,90.50
2018-06-11T17:42:10.284Z,90.80
2018-06-11T17:44:38.899Z,91.20
2018-06-11T17:47:12.454Z,91.00
2018-06-11T17:49:41.018Z,91.00
2018-06-11T17:52:09.578Z,91.20
2018-06-11T17:54:38.159Z,91.20
2018-06-11T17:57:06.698Z,91.00
2018-06-11T17:59:35.246Z,91.10
2018-06-11T18:02:03.886Z,91.50
2018-06-11T18:04:32.332Z,91.90
2018-06-11T18:07:01.810Z,92.30
2018-06-11T18:09:30.330Z,92.30
2018-06-11T18:11:58.784Z,92.20
2018-06-11T18:14:27.241Z,92.50
2018-06-11T18:16:55.734Z,92.50
2018-06-11T18:19:24.186Z,92.10
2018-06-11T18:21:53.435Z,92.80
2018-06-11T18:24:22.045Z,93.20
2018-06-11T18:26:50.821Z,93.40
2018-06-11T18:29:19.507Z,93.00
2018-06-11T18:31:48.185Z,93.40
2018-06-11T18:34:16.738Z,93.50
2018-06-11T18:36:45.377Z,94.30
2018-06-11T18:39:14.002Z,95.00
2018-06-11T18:41:42.549Z,94.70
2018-06-11T18:44:11.136Z,94.80
2018-06-11T18:46:39.804Z,94.80
2018-06-11T18:49:08.389Z,94.40
2018-06-11T18:51:36.982Z,94.40
2018-06-11T18:54:05.589Z,94.70
2018-06-11T18:56:34.257Z,95.00
2018-06-11T18:59:02.903Z,95.10
2018-06-11T19:01:31.575Z,95.00
2018-06-11T19:04:00.244Z,95.10
2018-06-11T19:08:57.067Z,95.50
2018-06-11T19:11:25.725Z,95.70
2018-06-11T19:13:54.275Z,95.70
2018-06-11T19:16:27.956Z,96.00
2018-06-11T19:18:56.655Z,96.10
2018-06-11T19:21:25.303Z,96.50
2018-06-11T19:23:54.003Z,96.90
2018-06-11T19:26:22.611Z,97.00
2018-06-11T19:28:51.186Z,97.00
2018-06-11T19:31:19.750Z,97.10
2018-06-11T19:33:48.415Z,97.30
2018-06-11T19:36:16.958Z,97.40
2018-06-11T19:38:45.550Z,97.30
2018-06-11T19:41:14.172Z,97.30
2018-06-11T19:43:42.722Z,97.40
2018-06-11T19:46:11.492Z,97.20
2018-06-11T19:48:40.066Z,97.40
2018-06-11T19:51:08.964Z,97.30
2018-06-11T19:53:37.636Z,97.20
2018-06-11T19:56:06.327Z,97.40
2018-06-11T19:58:34.838Z,97.70
2018-06-11T20:01:03.561Z,97.90
2018-06-11T20:03:32.199Z,97.80
2018-06-11T20:06:00.848Z,98.00
2018-06-11T20:08:29.514Z,97.90
2018-06-11T20:10:58.155Z,97.90
2018-06-11T20:13:26.696Z,97.80
2018-06-11T20:15:55.490Z,97.70
2018-06-11T20:18:24.079Z,97.80
2018-06-11T20:20:52.798Z,97.90
2018-06-11T20:23:21.417Z,98.10
2018-06-11T20:25:49.959Z,98.20
2018-06-11T20:28:18.613Z,98.30
2018-06-11T20:30:47.176Z,98.40
2018-06-11T20:33:15.797Z,98.50
2018-06-11T20:35:44.566Z,98.40
2018-06-11T20:38:13.142Z,98.40
2018-06-11T20:40:41.814Z,98.20
2018-06-11T20:43:10.413Z,98.30
2018-06-11T20:45:39.087Z,98.30
2018-06-11T20:48:07.795Z,98.40
2018-06-11T20:50:36.416Z,98.30
2018-06-11T20:53:05.035Z,98.50
2018-06-11T20:55:33.671Z,98.40
2018-06-11T20:58:03.906Z,98.80
2018-06-11T21:00:33.364Z,98.20
2018-06-11T21:03:02.085Z,98.10
2018-06-11T21:07:59.275Z,98.50
2018-06-11T21:10:28.071Z,98.60
2018-06-11T21:12:57.067Z,98.50
2018-06-11T21:15:25.987Z,98.30
2018-06-11T21:17:55.696Z,98.60
2018-06-11T21:20:24.503Z,98.70
2018-06-11T21:22:53.326Z,98.50
2018-06-11T21:27:52.023Z,98.20
2018-06-11T21:30:20.885Z,98.30
2018-06-11T21:32:49.710Z,98.50
2018-06-11T21:35:19.047Z,98.60
2018-06-11T21:37:47.831Z,98.30
2018-06-11T21:40:16.535Z,98.20
2018-06-11T21:42:45.331Z,98.30
2018-06-11T21:45:14.120Z,98.40
2018-06-11T21:47:42.908Z,98.70
2018-06-11T21:50:12.411Z,98.60
2018-06-11T21:52:41.747Z,98.60
2018-06-11T21:55:10.531Z,98.70
2018-06-11T21:57:39.406Z,98.90
2018-06-11T22:00:08.479Z,99.00
2018-06-11T22:02:37.289Z,98.90
2018-06-11T22:05:06.099Z,98.80
2018-06-11T22:07:34.879Z,98.70
2018-06-11T22:10:03.616Z,98.40
2018-06-11T22:12:32.587Z,98.50
2018-06-11T22:15:01.519Z,98.40
2018-06-11T22:17:30.218Z,98.20
2018-06-11T22:19:59.947Z,98.20
2018-06-11T22:22:29.507Z,98.10
2018-06-11T22:24:58.391Z,97.90
2018-06-11T22:27:36.744Z,97.80
2018-06-11T22:30:05.434Z,97.90
2018-06-11T22:32:35.071Z,98.10
2018-06-11T22:35:03.948Z,98.10
2018-06-11T22:37:32.668Z,98.20
2018-06-11T22:42:29.802Z,97.90
2018-06-11T22:44:58.636Z,98.10
2018-06-11T22:47:28.710Z,98.00
2018-06-11T22:49:58.075Z,98.10
2018-06-11T22:54:55.439Z,98.20
2018-06-11T22:57:24.202Z,98.10
2018-06-11T22:59:53.071Z,98.40
2018-06-11T23:02:23.186Z,98.60
2018-06-11T23:04:51.979Z,98.50
2018-06-11T23:07:20.732Z,98.20
2018-06-11T23:09:50.435Z,98.10
2018-06-11T23:12:20.070Z,98.20
2018-06-11T23:14:49.535Z,98.20
2018-06-11T23:17:18.354Z,98.30
2018-06-11T23:22:15.588Z,98.10
2018-06-11T23:24:44.451Z,97.60
2018-06-11T23:27:13.248Z,97.90
2018-06-11T23:29:42.838Z,98.00
2018-06-11T23:34:42.321Z,98.10
2018-06-11T23:37:11.164Z,98.10
2018-06-11T23:39:40.960Z,98.20
2018-06-11T23:42:09.598Z,98.10
2018-06-11T23:44:38.172Z,98.20
2018-06-11T23:47:06.724Z,98.40
2018-06-11T23:49:35.322Z,98.50
2018-06-11T23:52:04.213Z,98.70
2018-06-11T23:54:32.872Z,98.80
2018-06-11T23:57:01.587Z,98.80
2018-06-11T23:59:30.205Z,98.50
